createdAt,value
2019-03-01T00:01:59.265Z,22.03
2019-03-01T00:04:55.617Z,22.01
2019-03-01T00:08:01.492Z,21.98
2019-03-01T00:10:56.725Z,21.96
2019-03-01T00:13:52.400Z,21.93
2019-03-01T00:17:10.339Z,21.90
2019-03-01T00:20:19.972Z,21.87
2019-03-01T00:23:24.582Z,21.84
2019-03-01T00:26:35.484Z,21.79
2019-03-01T00:29:45.894Z,21.78
2019-03-01T00:32:58.785Z,21.74
2019-03-01T00:36:17.691Z,21.71
2019-03-01T00:39:05.286Z,21.70
2019-03-01T00:42:24.366Z,21.67
2019-03-01T00:44:53.229Z,21.66
2019-03-01T00:47:22.137Z,21.63
2019-03-01T00:49:50.923Z,21.59
2019-03-01T00:52:19.810Z,21.59
2019-03-01T00:54:48.557Z,21.57
2019-03-01T00:57:17.543Z,21.56
2019-03-01T00:59:46.358Z,21.55
2019-03-01T01:02:15.237Z,21.53
2019-03-01T01:04:43.939Z,21.51
2019-03-01T01:07:12.664Z,21.49
2019-03-01T01:09:41.528Z,21.48
2019-03-01T01:12:10.664Z,21.48
2019-03-01T01:14:39.533Z,21.44
2019-03-01T01:17:08.426Z,21.44
2019-03-01T01:19:37.218Z,21.43
2019-03-01T01:22:05.922Z,21.41
2019-03-01T01:24:34.762Z,21.39
2019-03-01T01:27:03.631Z,21.38
2019-03-01T01:29:32.470Z,21.35
2019-03-01T01:32:01.367Z,21.33
2019-03-01T01:34:30.184Z,21.31
2019-03-01T01:36:58.995Z,21.31
2019-03-01T01:39:27.813Z,21.30
2019-03-01T01:41:56.626Z,21.28
2019-03-01T01:44:25.349Z,21.26
2019-03-01T01:46:54.177Z,21.25
2019-03-01T01:49:22.991Z,21.24
2019-03-01T01:51:51.821Z,21.22
2019-03-01T01:54:20.623Z,21.20
2019-03-01T01:56:49.469Z,21.19
2019-03-01T01:59:18.211Z,21.17
2019-03-01T02:01:47.119Z,21.16
2019-03-01T02:04:16.023Z,21.14
2019-03-01T02:06:44.833Z,21.14
2019-03-01T02:09:24.941Z,21.12
2019-03-01T02:11:53.760Z,21.09
2019-03-01T02:14:22.562Z,21.08
2019-03-01T02:16:51.427Z,21.06
2019-03-01T02:19:20.273Z,21.05
2019-03-01T02:21:49.226Z,21.04
2019-03-01T02:24:18.026Z,21.03
2019-03-01T02:26:46.894Z,21.01
2019-03-01T02:29:15.728Z,21.01
2019-03-01T02:31:58.748Z,21.00
2019-03-01T02:34:27.560Z,20.98
2019-03-01T02:36:56.442Z,20.95
2019-03-01T02:39:25.289Z,20.95
2019-03-01T02:41:55.476Z,20.93
2019-03-01T02:44:24.216Z,20.92
2019-03-01T02:46:53.037Z,20.91
2019-03-01T02:49:21.926Z,20.89
2019-03-01T02:51:50.731Z,20.89
2019-03-01T02:54:19.493Z,20.87
2019-03-01T02:56:48.395Z,20.85
2019-03-01T02:59:17.326Z,20.85
2019-03-01T03:01:46.052Z,20.82
2019-03-01T03:04:14.936Z,20.81
2019-03-01T03:06:51.782Z,20.80
2019-03-01T03:09:20.521Z,20.79
2019-03-01T03:11:49.336Z,20.78
2019-03-01T03:14:18.212Z,20.77
2019-03-01T03:16:47.103Z,20.75
2019-03-01T03:19:15.964Z,20.75
2019-03-01T03:21:44.780Z,20.72
2019-03-01T03:24:13.584Z,20.72
2019-03-01T03:26:42.340Z,20.70
2019-03-01T03:29:11.150Z,20.71
2019-03-01T03:31:39.967Z,20.69
2019-03-01T03:34:08.713Z,20.68
2019-03-01T03:36:37.518Z,20.68
2019-03-01T03:39:08.907Z,20.66
2019-03-01T03:41:37.712Z,20.65
2019-03-01T03:44:06.485Z,20.64
2019-03-01T03:46:35.292Z,20.63
2019-03-01T03:49:04.123Z,20.62
2019-03-01T03:51:33.046Z,20.60
2019-03-01T03:54:01.970Z,20.59
2019-03-01T03:56:30.817Z,20.58
2019-03-01T03:58:59.752Z,20.57
2019-03-01T04:01:28.553Z,20.55
2019-03-01T04:03:57.354Z,20.55
2019-03-01T04:06:26.244Z,20.53
2019-03-01T04:08:55.131Z,20.52
2019-03-01T04:11:23.867Z,20.52
2019-03-01T04:13:52.604Z,20.52
2019-03-01T04:16:21.522Z,20.49
2019-03-01T04:18:50.298Z,20.48
2019-03-01T04:21:19.261Z,20.08
2019-03-01T04:23:49.142Z,20.46
2019-03-01T04:26:17.957Z,20.46
2019-03-01T04:28:46.798Z,20.45
2019-03-01T04:31:15.581Z,20.44
2019-03-01T04:33:44.379Z,20.43
2019-03-01T04:36:13.316Z,20.43
2019-03-01T04:38:42.290Z,20.41
2019-03-01T04:41:11.206Z,20.40
2019-03-01T04:43:39.939Z,20.40
2019-03-01T04:46:08.779Z,20.38
2019-03-01T04:48:37.532Z,20.37
2019-03-01T04:51:06.442Z,20.36
2019-03-01T04:53:35.287Z,20.35
2019-03-01T04:56:04.151Z,20.35
2019-03-01T04:58:33.012Z,20.34
2019-03-01T05:01:02.067Z,20.34
2019-03-01T05:03:30.822Z,20.31
2019-03-01T05:05:59.653Z,20.32
2019-03-01T05:08:28.463Z,20.30
2019-03-01T05:10:57.352Z,20.29
2019-03-01T05:13:26.234Z,20.28
2019-03-01T05:15:55.067Z,20.28
2019-03-01T05:18:23.876Z,20.26
2019-03-01T05:20:52.735Z,20.25
2019-03-01T05:23:21.607Z,20.25
2019-03-01T05:25:50.405Z,20.23
2019-03-01T05:28:19.311Z,20.22
2019-03-01T05:30:48.188Z,20.23
2019-03-01T05:33:16.931Z,20.23
2019-03-01T05:35:45.743Z,20.21
2019-03-01T05:38:21.517Z,20.20
2019-03-01T05:40:45.111Z,20.19
2019-03-01T05:43:13.992Z,20.18
2019-03-01T05:45:42.926Z,20.17
2019-03-01T05:48:11.744Z,19.82
2019-03-01T05:50:40.543Z,20.16
2019-03-01T05:53:09.262Z,20.15
2019-03-01T05:55:38.118Z,20.14
2019-03-01T05:58:26.841Z,20.13
2019-03-01T06:00:56.749Z,20.12
2019-03-01T06:03:58.383Z,20.10
2019-03-01T06:06:36.358Z,20.10
2019-03-01T06:09:23.052Z,20.09
2019-03-01T06:12:23.862Z,20.08
2019-03-01T06:15:37.632Z,20.06
2019-03-01T06:18:32.197Z,20.06
2019-03-01T06:21:18.159Z,20.05
2019-03-01T06:23:56.583Z,20.02
2019-03-01T06:26:56.930Z,20.01
2019-03-01T06:29:54.939Z,20.00
2019-03-01T06:33:06.615Z,19.99
2019-03-01T06:36:24.895Z,19.98
2019-03-01T06:39:49.727Z,19.95
2019-03-01T06:42:58.487Z,19.94
2019-03-01T06:45:48.409Z,19.92
2019-03-01T06:48:54.656Z,19.92
2019-03-01T06:51:29.451Z,19.95
2019-03-01T06:53:58.333Z,20.01
2019-03-01T06:56:27.166Z,20.05
2019-03-01T06:59:01.462Z,20.09
2019-03-01T07:01:49.367Z,20.13
2019-03-01T07:04:19.000Z,20.18
2019-03-01T07:06:47.977Z,20.23
2019-03-01T07:09:16.926Z,20.26
2019-03-01T07:11:45.683Z,20.33
2019-03-01T07:14:14.534Z,20.37
2019-03-01T07:16:43.466Z,20.38
2019-03-01T07:19:12.498Z,20.39
2019-03-01T07:21:41.321Z,20.40
2019-03-01T07:24:10.506Z,20.41
2019-03-01T07:26:39.682Z,20.44
2019-03-01T07:29:08.768Z,20.46
2019-03-01T07:31:37.622Z,20.48
2019-03-01T07:34:06.485Z,20.49
2019-03-01T07:36:35.444Z,20.51
2019-03-01T07:39:05.107Z,20.49
2019-03-01T07:41:33.916Z,20.50
2019-03-01T07:44:02.853Z,20.50
2019-03-01T07:46:31.715Z,20.50
2019-03-01T07:49:00.605Z,20.53
2019-03-01T07:51:30.710Z,20.56
2019-03-01T07:54:00.065Z,20.57
2019-03-01T07:56:28.917Z,20.54
2019-03-01T07:59:00.294Z,20.38
2019-03-01T08:01:29.224Z,20.18
2019-03-01T08:03:58.913Z,20.00
2019-03-01T08:06:27.719Z,19.84
2019-03-01T08:08:56.496Z,19.70
2019-03-01T08:11:28.461Z,19.57
2019-03-01T08:13:55.824Z,19.45
2019-03-01T08:16:25.350Z,19.37
2019-03-01T08:18:54.454Z,19.36
2019-03-01T08:21:23.344Z,19.37
2019-03-01T08:23:52.277Z,19.43
2019-03-01T08:26:21.278Z,19.47
2019-03-01T08:28:50.062Z,19.51
2019-03-01T08:31:21.112Z,19.55
2019-03-01T08:33:49.641Z,19.57
2019-03-01T08:36:18.435Z,19.59
2019-03-01T08:38:47.316Z,19.59
2019-03-01T08:41:16.119Z,19.61
2019-03-01T08:43:48.165Z,19.62
2019-03-01T08:46:15.572Z,19.63
2019-03-01T08:48:44.524Z,19.64
2019-03-01T08:51:13.398Z,19.66
2019-03-01T08:53:42.371Z,19.66
2019-03-01T08:56:14.670Z,19.67
2019-03-01T08:58:42.522Z,19.69
2019-03-01T09:01:12.268Z,19.71
2019-03-01T09:03:45.344Z,19.72
2019-03-01T09:06:13.326Z,19.73
2019-03-01T09:08:43.004Z,19.75
2019-03-01T09:11:12.959Z,19.77
2019-03-01T09:13:41.883Z,19.77
2019-03-01T09:16:10.833Z,19.76
2019-03-01T09:18:39.629Z,19.75
2019-03-01T09:21:12.243Z,19.78
2019-03-01T09:23:39.754Z,19.77
2019-03-01T09:26:08.646Z,19.79
2019-03-01T09:28:39.642Z,19.79
2019-03-01T09:31:08.128Z,19.80
2019-03-01T09:33:36.976Z,19.81
2019-03-01T09:36:27.912Z,19.81
2019-03-01T09:38:56.995Z,19.82
2019-03-01T09:41:25.817Z,19.81
2019-03-01T09:43:54.721Z,19.78
2019-03-01T09:46:24.432Z,19.75
2019-03-01T09:48:54.383Z,19.71
2019-03-01T09:51:23.222Z,19.68
2019-03-01T09:53:52.155Z,19.66
2019-03-01T09:56:21.059Z,19.63
2019-03-01T09:58:50.265Z,19.63
2019-03-01T10:01:19.917Z,19.64
2019-03-01T10:03:49.656Z,19.65
2019-03-01T10:06:18.407Z,19.66
2019-03-01T10:08:47.404Z,19.66
2019-03-01T10:11:16.338Z,19.67
2019-03-01T10:13:45.254Z,19.69
2019-03-01T10:16:14.159Z,19.69
2019-03-01T10:18:43.059Z,19.70
2019-03-01T10:21:11.936Z,19.71
2019-03-01T10:23:40.739Z,19.70
2019-03-01T10:26:09.539Z,19.71
2019-03-01T10:28:38.668Z,19.72
2019-03-01T10:31:07.413Z,19.72
2019-03-01T10:33:36.252Z,19.74
2019-03-01T10:36:05.152Z,19.75
2019-03-01T10:38:34.122Z,19.75
2019-03-01T10:41:02.941Z,19.75
2019-03-01T10:43:31.927Z,19.75
2019-03-01T10:46:01.782Z,19.75
2019-03-01T10:48:30.657Z,19.71
2019-03-01T10:50:59.456Z,19.67
2019-03-01T10:53:28.347Z,19.64
2019-03-01T10:55:57.199Z,19.62
2019-03-01T10:58:26.083Z,19.59
2019-03-01T11:00:54.897Z,19.56
2019-03-01T11:03:23.965Z,19.56
2019-03-01T11:05:53.094Z,19.55
2019-03-01T11:08:21.997Z,19.55
2019-03-01T11:10:51.061Z,19.53
2019-03-01T11:13:20.061Z,19.52
2019-03-01T11:15:48.960Z,19.50
2019-03-01T11:18:17.936Z,19.49
2019-03-01T11:20:46.903Z,19.47
2019-03-01T11:23:15.901Z,19.47
2019-03-01T11:25:44.872Z,19.44
2019-03-01T11:28:13.775Z,19.44
2019-03-01T11:30:42.634Z,19.42
2019-03-01T11:33:11.507Z,19.40
2019-03-01T11:35:40.462Z,19.40
2019-03-01T11:38:09.336Z,19.38
2019-03-01T11:40:38.180Z,19.39
2019-03-01T11:43:07.210Z,19.51
2019-03-01T11:45:36.062Z,19.59
2019-03-01T11:48:05.102Z,19.67
2019-03-01T11:50:34.082Z,19.70
2019-03-01T11:53:03.844Z,19.73
2019-03-01T11:55:32.835Z,19.73
2019-03-01T11:58:01.774Z,19.74
2019-03-01T12:00:30.739Z,19.74
2019-03-01T12:02:59.685Z,19.73
2019-03-01T12:05:28.635Z,19.74
2019-03-01T12:07:57.598Z,19.73
2019-03-01T12:10:26.555Z,19.73
2019-03-01T12:12:55.471Z,19.72
2019-03-01T12:15:24.287Z,19.70
2019-03-01T12:17:53.374Z,19.69
2019-03-01T12:20:22.845Z,19.69
2019-03-01T12:22:51.830Z,19.68
2019-03-01T12:25:20.774Z,19.66
2019-03-01T12:27:50.005Z,19.64
2019-03-01T12:30:20.653Z,19.62
2019-03-01T12:32:49.853Z,19.60
2019-03-01T12:35:18.798Z,19.57
2019-03-01T12:37:47.836Z,19.56
2019-03-01T12:40:21.948Z,19.54
2019-03-01T12:42:51.104Z,19.51
2019-03-01T12:45:20.074Z,19.48
2019-03-01T12:47:49.378Z,19.47
2019-03-01T12:50:18.308Z,19.44
2019-03-01T12:52:47.278Z,19.43
2019-03-01T12:55:17.614Z,19.41
2019-03-01T12:57:46.583Z,19.38
2019-03-01T13:00:18.781Z,19.38
2019-03-01T13:02:47.692Z,19.39
2019-03-01T13:05:16.630Z,19.39
2019-03-01T13:07:45.913Z,19.40
2019-03-01T13:10:25.970Z,19.40
2019-03-01T13:12:54.979Z,19.36
2019-03-01T13:15:23.963Z,19.30
2019-03-01T13:17:52.849Z,19.26
2019-03-01T13:20:21.787Z,19.25
2019-03-01T13:22:50.729Z,19.23
2019-03-01T13:25:19.707Z,19.23
2019-03-01T13:27:52.138Z,19.24
2019-03-01T13:30:20.809Z,19.25
2019-03-01T13:32:49.769Z,19.27
2019-03-01T13:35:22.250Z,19.29
2019-03-01T13:37:52.018Z,19.34
2019-03-01T13:40:20.842Z,19.36
2019-03-01T13:43:13.136Z,19.40
2019-03-01T13:45:43.052Z,19.44
2019-03-01T13:48:12.563Z,19.48
2019-03-01T13:50:42.416Z,19.49
2019-03-01T13:53:11.502Z,19.53
2019-03-01T13:55:40.996Z,19.54
2019-03-01T13:58:10.087Z,19.56
2019-03-01T14:00:39.421Z,19.57
2019-03-01T14:03:08.551Z,19.58
2019-03-01T14:05:37.820Z,19.58
2019-03-01T14:08:09.275Z,19.56
2019-03-01T14:10:38.542Z,19.54
2019-03-01T14:13:11.251Z,19.54
2019-03-01T14:15:40.470Z,19.55
2019-03-01T14:18:09.697Z,19.60
2019-03-01T14:20:38.698Z,19.70
2019-03-01T14:23:07.979Z,19.82
2019-03-01T14:25:38.599Z,19.93
2019-03-01T14:28:07.969Z,20.04
2019-03-01T14:30:37.120Z,20.09
2019-03-01T14:33:06.342Z,20.14
2019-03-01T14:35:35.556Z,20.19
2019-03-01T14:38:04.899Z,20.23
2019-03-01T14:40:34.102Z,20.27
2019-03-01T14:43:03.332Z,20.32
2019-03-01T14:45:32.628Z,20.33
2019-03-01T14:48:05.114Z,20.36
2019-03-01T14:50:33.626Z,20.38
2019-03-01T14:53:03.263Z,20.40
2019-03-01T14:55:35.344Z,20.42
2019-03-01T14:58:08.548Z,20.43
2019-03-01T15:00:51.230Z,20.44
2019-03-01T15:03:31.611Z,20.44
2019-03-01T15:06:00.695Z,20.46
2019-03-01T15:08:29.855Z,20.50
2019-03-01T15:11:04.409Z,20.53
2019-03-01T15:13:34.783Z,20.58
2019-03-01T15:16:04.768Z,20.62
2019-03-01T15:18:33.752Z,20.66
2019-03-01T15:21:03.010Z,20.69
2019-03-01T15:23:32.173Z,20.71
2019-03-01T15:26:01.238Z,20.72
2019-03-01T15:28:30.286Z,20.76
2019-03-01T15:30:59.323Z,20.87
2019-03-01T15:33:28.333Z,21.10
2019-03-01T15:35:57.490Z,21.43
2019-03-01T15:38:27.691Z,21.76
2019-03-01T15:40:57.421Z,22.05
2019-03-01T15:43:30.009Z,22.27
2019-03-01T15:45:58.214Z,22.41
2019-03-01T15:48:27.343Z,22.54
2019-03-01T15:50:58.964Z,22.62
2019-03-01T15:53:27.280Z,22.69
2019-03-01T15:55:56.285Z,22.76
2019-03-01T15:58:29.207Z,22.78
2019-03-01T16:00:56.909Z,22.82
2019-03-01T16:03:25.991Z,22.84
2019-03-01T16:05:55.178Z,22.87
2019-03-01T16:08:24.390Z,22.90
2019-03-01T16:10:53.952Z,22.93
2019-03-01T16:13:24.368Z,22.94
2019-03-01T16:15:53.437Z,22.97
2019-03-01T16:18:22.779Z,22.98
2019-03-01T16:20:51.930Z,23.01
2019-03-01T16:23:20.911Z,22.98
2019-03-01T16:25:53.038Z,22.97
2019-03-01T16:28:20.854Z,22.95
2019-03-01T16:30:53.119Z,22.91
2019-03-01T16:33:22.450Z,22.86
2019-03-01T16:35:52.475Z,22.77
2019-03-01T16:38:21.591Z,22.71
2019-03-01T16:40:50.690Z,22.66
2019-03-01T16:43:19.723Z,22.61
2019-03-01T16:45:48.852Z,22.57
2019-03-01T16:48:17.927Z,22.52
2019-03-01T16:50:46.961Z,22.50
2019-03-01T16:53:16.125Z,22.49
2019-03-01T16:55:45.252Z,22.49
2019-03-01T16:58:14.236Z,22.49
2019-03-01T17:00:43.219Z,22.49
2019-03-01T17:03:16.592Z,22.48
2019-03-01T17:05:43.882Z,22.48
2019-03-01T17:08:12.848Z,22.46
2019-03-01T17:10:41.903Z,22.46
2019-03-01T17:13:10.955Z,22.43
2019-03-01T17:15:40.030Z,22.40
2019-03-01T17:18:12.296Z,22.40
2019-03-01T17:20:39.851Z,22.41
2019-03-01T17:23:11.304Z,22.43
2019-03-01T17:25:40.105Z,22.44
2019-03-01T17:28:09.311Z,22.46
2019-03-01T17:30:38.474Z,22.43
2019-03-01T17:33:09.760Z,22.42
2019-03-01T17:35:40.922Z,22.43
2019-03-01T17:38:09.397Z,22.49
2019-03-01T17:40:38.972Z,22.53
2019-03-01T17:43:08.075Z,22.60
2019-03-01T17:45:37.557Z,22.66
2019-03-01T17:48:06.753Z,22.72
2019-03-01T17:50:35.892Z,22.77
2019-03-01T17:53:06.081Z,22.81
2019-03-01T17:55:37.597Z,22.81
2019-03-01T17:58:08.825Z,22.77
2019-03-01T18:00:38.945Z,22.73
2019-03-01T18:03:08.191Z,22.71
2019-03-01T18:05:40.574Z,22.71
2019-03-01T18:08:08.410Z,22.69
2019-03-01T18:10:37.613Z,22.68
2019-03-01T18:13:07.013Z,22.67
2019-03-01T18:15:36.014Z,22.66
2019-03-01T18:18:05.170Z,22.66
2019-03-01T18:20:37.591Z,22.64
2019-03-01T18:23:05.441Z,22.60
2019-03-01T18:25:34.683Z,22.64
2019-03-01T18:28:03.931Z,22.74
2019-03-01T18:30:33.071Z,22.84
2019-03-01T18:33:02.267Z,22.93
2019-03-01T18:35:31.754Z,22.99
2019-03-01T18:38:01.078Z,23.05
2019-03-01T18:40:30.548Z,23.13
2019-03-01T18:42:59.791Z,23.22
2019-03-01T18:45:28.863Z,23.31
2019-03-01T18:47:58.202Z,23.34
2019-03-01T18:50:31.336Z,23.36
2019-03-01T18:53:00.419Z,23.41
2019-03-01T18:55:32.311Z,23.47
2019-03-01T18:58:01.903Z,23.53
2019-03-01T19:00:35.675Z,23.59
2019-03-01T19:03:05.489Z,23.64
2019-03-01T19:05:36.567Z,23.67
2019-03-01T19:08:06.882Z,23.71
2019-03-01T19:10:36.963Z,23.73
2019-03-01T19:13:12.390Z,23.74
2019-03-01T19:15:42.400Z,23.73
2019-03-01T19:18:13.586Z,23.71
2019-03-01T19:20:43.907Z,23.69
2019-03-01T19:23:14.329Z,23.66
2019-03-01T19:25:45.007Z,23.64
2019-03-01T19:28:15.130Z,23.62
2019-03-01T19:30:45.954Z,23.59
2019-03-01T19:33:17.876Z,23.55
2019-03-01T19:35:48.152Z,23.52
2019-03-01T19:38:21.712Z,23.50
2019-03-01T19:40:53.435Z,23.48
2019-03-01T19:43:23.875Z,23.39
2019-03-01T19:45:54.394Z,23.28
2019-03-01T19:48:25.154Z,23.20
2019-03-01T19:50:58.538Z,23.15
2019-03-01T19:53:28.513Z,23.13
2019-03-01T19:55:58.836Z,23.10
2019-03-01T19:58:29.570Z,23.09
2019-03-01T20:00:59.212Z,23.06
2019-03-01T20:03:29.758Z,23.02
2019-03-01T20:06:00.380Z,22.98
2019-03-01T20:08:30.961Z,22.94
2019-03-01T20:11:02.404Z,22.94
2019-03-01T20:13:34.974Z,22.94
2019-03-01T20:16:05.765Z,22.94
2019-03-01T20:18:36.913Z,22.95
2019-03-01T20:21:09.456Z,22.96
2019-03-01T20:23:40.004Z,22.97
2019-03-01T20:26:10.664Z,22.97
2019-03-01T20:28:41.514Z,22.66
2019-03-01T20:31:12.420Z,22.95
2019-03-01T20:33:43.275Z,22.96
2019-03-01T20:36:17.710Z,22.93
2019-03-01T20:38:46.420Z,22.94
2019-03-01T20:41:16.645Z,22.95
2019-03-01T20:43:49.281Z,22.95
2019-03-01T20:46:20.219Z,22.96
2019-03-01T20:48:50.923Z,22.97
2019-03-01T20:51:26.324Z,22.97
2019-03-01T20:53:53.521Z,22.97
2019-03-01T20:56:24.150Z,22.96
2019-03-01T20:58:55.410Z,22.98
2019-03-01T21:01:28.436Z,22.97
2019-03-01T21:03:58.166Z,22.97
2019-03-01T21:06:28.907Z,22.96
2019-03-01T21:09:00.684Z,22.94
2019-03-01T21:11:31.824Z,22.92
2019-03-01T21:14:02.095Z,22.89
2019-03-01T21:16:32.659Z,22.87
2019-03-01T21:19:05.724Z,22.84
2019-03-01T21:21:34.964Z,22.83
2019-03-01T21:24:05.138Z,22.81
2019-03-01T21:26:35.635Z,22.79
2019-03-01T21:29:08.876Z,22.77
2019-03-01T21:31:38.168Z,22.74
2019-03-01T21:34:07.586Z,22.72
2019-03-01T21:36:37.638Z,22.69
2019-03-01T21:39:08.294Z,22.70
2019-03-01T21:41:41.274Z,22.77
2019-03-01T21:44:10.602Z,22.92
2019-03-01T21:46:40.815Z,23.09
2019-03-01T21:49:10.661Z,23.26
2019-03-01T21:51:40.469Z,23.39
2019-03-01T21:54:12.606Z,23.52
2019-03-01T21:56:55.545Z,23.63
2019-03-01T21:59:17.324Z,23.73
2019-03-01T22:01:45.390Z,23.81
2019-03-01T22:04:14.588Z,23.86
2019-03-01T22:06:44.389Z,23.91
2019-03-01T22:09:13.737Z,23.94
2019-03-01T22:11:45.774Z,23.97
2019-03-01T22:14:14.323Z,24.00
2019-03-01T22:16:43.370Z,24.02
2019-03-01T22:19:12.542Z,24.05
2019-03-01T22:21:41.955Z,24.08
2019-03-01T22:24:11.524Z,24.11
2019-03-01T22:26:41.216Z,24.10
2019-03-01T22:29:12.109Z,24.10
2019-03-01T22:31:41.472Z,24.07
2019-03-01T22:34:10.565Z,24.04
2019-03-01T22:36:39.849Z,24.01
2019-03-01T22:39:09.047Z,23.98
2019-03-01T22:41:39.425Z,23.95
2019-03-01T22:44:09.437Z,23.91
2019-03-01T22:46:38.502Z,23.88
2019-03-01T22:49:07.669Z,23.83
2019-03-01T22:51:36.955Z,23.77
2019-03-01T22:54:05.954Z,23.73
2019-03-01T22:56:35.465Z,23.68
2019-03-01T22:59:04.607Z,23.61
2019-03-01T23:01:41.068Z,23.59
2019-03-01T23:04:10.197Z,23.55
2019-03-01T23:06:39.372Z,23.49
2019-03-01T23:09:11.599Z,23.44
2019-03-01T23:11:40.771Z,23.40
2019-03-01T23:14:10.073Z,23.37
2019-03-01T23:16:39.143Z,23.32
2019-03-01T23:19:08.257Z,23.27
2019-03-01T23:21:37.247Z,23.23
2019-03-01T23:24:06.478Z,23.20
2019-03-01T23:26:35.580Z,23.16
2019-03-01T23:29:04.560Z,23.14
2019-03-01T23:31:35.621Z,23.11
2019-03-01T23:34:06.963Z,23.09
2019-03-01T23:36:35.360Z,23.06
2019-03-01T23:39:04.498Z,23.04
2019-03-01T23:41:33.505Z,23.01
2019-03-01T23:44:02.787Z,22.99
2019-03-01T23:46:33.228Z,22.96
2019-03-01T23:49:06.241Z,22.91
2019-03-01T23:51:32.983Z,22.88
2019-03-01T23:54:01.961Z,22.86
2019-03-01T23:56:30.973Z,22.82
2019-03-01T23:58:59.962Z,22.80
